createdAt,value
2019-04-23T00:00:35.114Z,2.87
2019-04-23T00:02:53.718Z,3.85
2019-04-23T00:05:35.435Z,2.85
2019-04-23T00:07:56.182Z,3.60
2019-04-23T00:10:28.617Z,3.63
2019-04-23T00:12:52.747Z,2.60
2019-04-23T00:15:40.795Z,6.80
2019-04-23T00:18:12.751Z,4.35
2019-04-23T00:20:33.919Z,2.30
2019-04-23T00:23:12.535Z,3.55
2019-04-23T00:25:49.815Z,1.95
2019-04-23T00:28:16.417Z,2.65
2019-04-23T00:30:55.298Z,5.63
2019-04-23T00:33:15.441Z,4.20
2019-04-23T00:43:08.399Z,3.17
2019-04-23T00:45:47.110Z,4.05
2019-04-23T00:48:26.157Z,2.20
2019-04-23T00:53:13.805Z,2.87
2019-04-23T01:00:47.329Z,2.55
2019-04-23T01:03:15.514Z,5.13
2019-04-23T01:05:45.502Z,6.65
2019-04-23T01:08:20.140Z,4.70
2019-04-23T01:10:57.898Z,2.47
2019-04-23T01:13:36.299Z,4.15
2019-04-23T01:15:53.728Z,5.28
2019-04-23T01:20:54.989Z,3.40
2019-04-23T01:23:37.746Z,2.35
2019-04-23T01:26:21.281Z,3.40
2019-04-23T01:29:03.361Z,2.87
2019-04-23T01:31:27.203Z,4.03
2019-04-23T01:33:56.646Z,6.72
2019-04-23T01:36:26.259Z,2.83
2019-04-23T01:39:00.305Z,3.02
2019-04-23T01:41:28.581Z,3.83
2019-04-23T01:43:58.104Z,4.40
2019-04-23T01:46:35.776Z,2.67
2019-04-23T01:48:58.642Z,4.17
2019-04-23T01:51:38.068Z,4.00
2019-04-23T01:54:00.340Z,2.53
2019-04-23T01:56:32.027Z,3.33
2019-04-23T01:59:05.425Z,3.33
2019-04-23T02:01:32.755Z,5.67
2019-04-23T02:04:03.582Z,4.85
2019-04-23T02:06:31.613Z,2.67
2019-04-23T02:09:16.921Z,3.62
2019-04-23T02:11:34.161Z,4.03
2019-04-23T02:14:03.764Z,5.70
2019-04-23T02:16:38.808Z,2.58
2019-04-23T02:19:03.352Z,2.72
2019-04-23T02:21:47.739Z,3.17
2019-04-23T02:24:18.241Z,5.73
2019-04-23T02:26:50.794Z,3.83
2019-04-23T02:29:41.263Z,3.95
2019-04-23T02:34:51.271Z,2.52
2019-04-23T02:39:51.303Z,2.98
2019-04-23T02:42:18.988Z,6.30
2019-04-23T02:44:35.065Z,5.85
2019-04-23T02:49:44.159Z,5.42
2019-04-23T02:52:09.521Z,4.15
2019-04-23T02:56:59.727Z,3.60
2019-04-23T03:07:24.409Z,5.08
2019-04-23T03:14:55.996Z,5.77
2019-04-23T03:17:49.675Z,3.40
2019-04-23T03:20:15.192Z,5.08
2019-04-23T03:23:03.078Z,5.15
2019-04-23T03:25:16.732Z,3.20
2019-04-23T03:30:49.448Z,4.58
2019-04-23T03:33:20.078Z,3.63
2019-04-23T03:35:30.965Z,3.87
2019-04-23T03:37:47.775Z,3.80
2019-04-23T03:40:13.885Z,3.43
2019-04-23T03:55:21.057Z,3.85
2019-04-23T03:57:43.426Z,8.40
2019-04-23T04:00:24.904Z,5.37
2019-04-23T04:03:10.664Z,11.13
2019-04-23T04:05:27.302Z,4.97
2019-04-23T04:08:00.219Z,9.35
2019-04-23T04:10:16.313Z,5.80
2019-04-23T04:15:43.803Z,11.15
2019-04-23T04:18:01.611Z,10.58
2019-04-23T04:20:28.227Z,4.22
2019-04-23T04:22:59.270Z,4.92
2019-04-23T04:25:26.941Z,5.23
2019-04-23T04:30:31.889Z,5.28
2019-04-23T04:38:10.403Z,4.67
2019-04-23T04:47:47.974Z,4.97
2019-04-23T04:50:19.403Z,5.20
2019-04-23T04:52:58.655Z,4.75
2019-04-23T05:03:19.242Z,5.12
2019-04-23T05:05:57.166Z,6.93
2019-04-23T05:10:38.520Z,6.73
2019-04-23T05:12:59.980Z,7.40
2019-04-23T05:15:23.207Z,5.12
2019-04-23T05:18:13.306Z,6.73
2019-04-23T05:20:36.652Z,5.42
2019-04-23T05:23:07.013Z,6.55
2019-04-23T05:25:25.835Z,5.80
2019-04-23T05:30:39.736Z,4.90
2019-04-23T05:33:05.956Z,6.97
2019-04-23T05:40:49.928Z,5.60
2019-04-23T05:43:03.311Z,6.75
2019-04-23T05:45:59.198Z,7.35
2019-04-23T05:48:23.362Z,5.30
2019-04-23T05:53:27.210Z,5.47
2019-04-23T05:58:28.839Z,6.72
2019-04-23T06:01:33.607Z,9.88
2019-04-23T06:03:48.933Z,8.20
2019-04-23T06:06:20.829Z,6.25
2019-04-23T06:08:53.347Z,7.58
2019-04-23T06:11:28.491Z,7.53
2019-04-23T06:14:02.203Z,7.50
2019-04-23T06:16:34.061Z,6.00
2019-04-23T06:18:59.243Z,8.78
2019-04-23T06:21:26.722Z,6.28
2019-04-23T06:23:54.686Z,6.07
2019-04-23T06:29:00.923Z,8.30
2019-04-23T06:31:38.079Z,6.22
2019-04-23T06:33:54.139Z,6.42
2019-04-23T06:36:25.998Z,6.40
2019-04-23T06:44:09.292Z,6.60
2019-04-23T06:46:39.229Z,6.70
2019-04-23T06:49:02.398Z,9.33
2019-04-23T06:51:37.809Z,6.10
2019-04-23T06:54:08.733Z,7.00
2019-04-23T06:56:40.554Z,8.40
2019-04-23T06:59:06.326Z,6.70
2019-04-23T07:01:36.147Z,7.67
2019-04-23T07:04:06.771Z,9.23
2019-04-23T07:06:58.207Z,8.10
2019-04-23T07:11:34.208Z,5.70
2019-04-23T07:13:58.480Z,6.23
2019-04-23T07:16:38.554Z,6.37
2019-04-23T07:19:09.559Z,9.73
2019-04-23T07:21:42.011Z,9.15
2019-04-23T07:24:05.182Z,8.95
2019-04-23T07:26:40.773Z,13.83
2019-04-23T07:29:18.928Z,5.83
2019-04-23T07:36:35.572Z,7.25
2019-04-23T07:42:03.705Z,7.50
2019-04-23T07:44:39.838Z,5.95
2019-04-23T07:47:26.336Z,8.40
2019-04-23T07:49:49.335Z,7.03
2019-04-23T07:52:27.667Z,8.08
2019-04-23T07:59:48.594Z,6.03
2019-04-23T08:02:24.112Z,6.92
2019-04-23T08:05:03.548Z,6.42
2019-04-23T08:07:22.579Z,8.10
2019-04-23T08:09:54.739Z,6.08
2019-04-23T08:14:53.210Z,6.83
2019-04-23T08:17:19.036Z,7.08
2019-04-23T08:19:55.313Z,5.83
2019-04-23T08:22:25.858Z,6.15
2019-04-23T08:25:01.177Z,10.75
2019-04-23T08:27:24.052Z,7.00
2019-04-23T08:30:03.331Z,7.12
2019-04-23T08:32:27.989Z,8.97
2019-04-23T08:37:49.429Z,8.65
2019-04-23T08:40:04.376Z,6.80
2019-04-23T08:45:35.489Z,7.10
2019-04-23T08:55:49.952Z,6.00
2019-04-23T08:58:19.089Z,6.30
2019-04-23T09:01:05.671Z,10.27
2019-04-23T09:03:28.457Z,9.53
2019-04-23T09:05:52.496Z,8.93
2019-04-23T09:08:19.240Z,6.40
2019-04-23T09:10:56.662Z,6.57
2019-04-23T09:15:51.238Z,12.40
2019-04-23T09:20:47.973Z,5.92
2019-04-23T09:23:29.668Z,9.33
2019-04-23T09:30:55.495Z,7.80
2019-04-23T09:33:46.674Z,7.40
2019-04-23T09:39:00.197Z,9.55
2019-04-23T09:44:30.363Z,6.17
2019-04-23T09:46:57.313Z,6.05
2019-04-23T09:51:56.235Z,6.75
2019-04-23T09:54:30.039Z,5.30
2019-04-23T10:01:45.232Z,6.47
2019-04-23T10:04:08.198Z,8.38
2019-04-23T10:06:32.234Z,5.27
2019-04-23T10:09:00.151Z,5.93
2019-04-23T10:11:28.357Z,5.70
2019-04-23T10:13:58.624Z,7.07
2019-04-23T10:18:57.452Z,6.47
2019-04-23T10:21:25.975Z,5.30
2019-04-23T10:23:55.074Z,7.12
2019-04-23T10:26:24.038Z,5.50
2019-04-23T10:28:55.919Z,5.42
2019-04-23T10:31:25.143Z,6.83
2019-04-23T10:33:53.944Z,9.05
2019-04-23T10:36:25.852Z,5.87
2019-04-23T10:39:01.969Z,8.70
2019-04-23T10:41:24.228Z,6.62
2019-04-23T10:43:56.343Z,5.80
2019-04-23T10:46:48.980Z,8.40
2019-04-23T10:49:55.443Z,6.83
2019-04-23T10:52:25.879Z,6.22
2019-04-23T10:54:51.162Z,6.50
2019-04-23T10:57:21.191Z,6.53
2019-04-23T10:59:47.423Z,8.58
2019-04-23T11:05:08.712Z,6.72
2019-04-23T11:10:07.236Z,7.67
2019-04-23T11:17:45.601Z,9.03
2019-04-23T11:20:14.890Z,6.37
2019-04-23T11:22:45.243Z,6.12
2019-04-23T11:25:21.569Z,6.12
2019-04-23T11:30:19.407Z,5.70
2019-04-23T11:33:04.994Z,10.63
2019-04-23T11:35:39.559Z,7.00
2019-04-23T11:37:47.937Z,9.83
2019-04-23T11:40:15.799Z,10.68
2019-04-23T11:42:47.739Z,7.78
2019-04-23T11:45:15.018Z,6.93
2019-04-23T11:48:14.315Z,12.58
2019-04-23T11:50:24.174Z,9.48
2019-04-23T11:55:28.209Z,12.13
2019-04-23T11:57:52.049Z,7.27
2019-04-23T12:00:14.507Z,6.53
2019-04-23T12:02:56.217Z,7.70
2019-04-23T12:05:34.998Z,8.58
2019-04-23T12:07:57.058Z,8.25
2019-04-23T12:15:42.317Z,8.10
2019-04-23T12:18:25.548Z,8.18
2019-04-23T12:20:35.832Z,6.17
2019-04-23T12:23:25.929Z,7.03
2019-04-23T12:25:45.812Z,7.47
2019-04-23T12:28:06.682Z,8.53
2019-04-23T12:33:12.950Z,6.28
2019-04-23T12:35:35.195Z,8.33
2019-04-23T12:38:14.237Z,7.80
2019-04-23T12:45:35.645Z,9.35
2019-04-23T12:50:48.513Z,6.50
2019-04-23T12:53:23.705Z,8.17
2019-04-23T12:58:17.855Z,9.70
2019-04-23T13:00:38.899Z,7.58
2019-04-23T13:03:16.736Z,11.23
2019-04-23T13:05:53.991Z,7.95
2019-04-23T13:10:48.054Z,10.28
2019-04-23T13:13:24.296Z,9.43
2019-04-23T13:16:05.641Z,7.33
2019-04-23T13:18:17.430Z,11.73
2019-04-23T13:20:46.056Z,7.12
2019-04-23T13:23:26.298Z,13.07
2019-04-23T13:28:21.029Z,7.42
2019-04-23T13:31:00.819Z,8.33
2019-04-23T13:36:01.059Z,9.47
2019-04-23T13:46:06.892Z,7.43
2019-04-23T13:48:24.358Z,9.48
2019-04-23T13:56:05.618Z,7.40
2019-04-23T14:01:07.412Z,8.53
2019-04-23T14:06:16.538Z,7.70
2019-04-23T14:08:47.381Z,10.98
2019-04-23T14:24:08.283Z,11.35
2019-04-23T14:28:59.290Z,13.73
2019-04-23T14:31:30.408Z,9.55
2019-04-23T14:40:12.534Z,11.12
2019-04-23T14:41:26.216Z,7.40
2019-04-23T14:44:11.438Z,10.13
2019-04-23T14:49:04.317Z,8.80
2019-04-23T14:54:08.670Z,9.17
2019-04-23T14:56:37.399Z,11.83
2019-04-23T15:01:58.575Z,8.15
2019-04-23T15:04:10.984Z,7.35
2019-04-23T15:06:43.738Z,6.20
2019-04-23T15:11:58.192Z,6.87
2019-04-23T15:14:10.078Z,5.37
2019-04-23T15:27:37.221Z,6.42
2019-04-23T15:29:01.738Z,9.15
2019-04-23T15:31:55.588Z,7.40
2019-04-23T15:34:19.003Z,6.25
2019-04-23T15:44:13.623Z,8.73
2019-04-23T15:46:47.472Z,7.03
2019-04-23T15:51:54.196Z,7.47
2019-04-23T15:54:28.135Z,8.45
2019-04-23T15:59:27.618Z,7.50
2019-04-23T16:01:39.490Z,6.27
2019-04-23T16:03:53.746Z,10.75
2019-04-23T16:06:26.697Z,7.20
2019-04-23T16:09:16.217Z,8.40
2019-04-23T16:11:48.129Z,8.20
2019-04-23T16:17:02.088Z,7.92
2019-04-23T16:19:25.198Z,7.77
2019-04-23T16:22:01.827Z,9.48
2019-04-23T16:27:06.037Z,10.88
2019-04-23T16:29:40.100Z,10.30
2019-04-23T16:32:05.403Z,9.00
2019-04-23T16:34:58.397Z,7.30
2019-04-23T16:37:09.940Z,8.93
2019-04-23T16:59:37.046Z,7.50
2019-04-23T17:02:18.405Z,9.25
2019-04-23T17:04:38.695Z,9.37
2019-04-23T17:07:03.317Z,8.15
2019-04-23T17:09:42.758Z,9.50
2019-04-23T17:12:10.382Z,8.70
2019-04-23T17:14:32.975Z,7.62
2019-04-23T17:16:58.224Z,7.07
2019-04-23T17:19:47.150Z,9.05
2019-04-23T17:22:09.585Z,9.25
2019-04-23T17:25:01.149Z,7.65
2019-04-23T17:27:22.585Z,10.05
2019-04-23T17:32:05.629Z,10.32
2019-04-23T17:37:22.959Z,6.83
2019-04-23T17:40:09.734Z,8.10
2019-04-23T17:42:39.557Z,7.15
2019-04-23T17:45:26.456Z,6.95
2019-04-23T17:47:45.711Z,8.68
2019-04-23T17:50:17.892Z,7.60
2019-04-23T17:52:41.840Z,6.05
2019-04-23T17:55:15.417Z,7.42
2019-04-23T17:57:47.058Z,8.18
2019-04-23T18:05:11.105Z,7.87
2019-04-23T18:10:22.923Z,9.50
2019-04-23T18:15:13.177Z,10.13
2019-04-23T18:17:52.559Z,9.93
2019-04-23T18:20:36.880Z,8.60
2019-04-23T18:23:05.783Z,9.57
2019-04-23T18:25:46.659Z,6.78
2019-04-23T18:28:13.519Z,9.50
2019-04-23T18:31:07.780Z,11.90
2019-04-23T18:36:09.827Z,7.28
2019-04-23T18:38:41.560Z,9.83
2019-04-23T18:41:17.504Z,8.40
2019-04-23T18:43:56.799Z,11.23
2019-04-23T18:46:14.445Z,11.80
2019-04-23T18:48:50.120Z,9.87
2019-04-23T18:51:33.667Z,6.90
2019-04-23T18:58:54.438Z,7.83
2019-04-23T19:03:57.694Z,7.55
2019-04-23T19:06:34.495Z,10.10
2019-04-23T19:09:12.159Z,15.13
2019-04-23T19:12:26.477Z,12.93
2019-04-23T19:14:44.019Z,10.08
2019-04-23T19:19:46.444Z,12.83
2019-04-23T19:29:44.063Z,11.75
2019-04-23T19:32:14.888Z,9.53
2019-04-23T19:39:36.360Z,11.18
2019-04-23T19:42:21.154Z,10.33
2019-04-23T19:47:09.535Z,9.53
2019-04-23T19:49:41.869Z,10.23
2019-04-23T19:52:03.485Z,10.93
2019-04-23T19:57:19.909Z,9.00
2019-04-23T19:59:47.593Z,8.55
2019-04-23T20:04:42.838Z,11.40
2019-04-23T20:07:25.430Z,10.60
2019-04-23T20:09:48.623Z,9.80
2019-04-23T20:12:28.332Z,8.80
2019-04-23T20:19:45.324Z,8.10
2019-04-23T20:22:21.200Z,9.58
2019-04-23T20:30:21.285Z,8.00
2019-04-23T20:32:53.964Z,8.95
2019-04-23T20:38:11.812Z,9.03
2019-04-23T20:40:04.453Z,10.63
2019-04-23T20:42:34.701Z,10.50
2019-04-23T20:45:04.807Z,6.60
2019-04-23T20:47:38.953Z,10.80
2019-04-23T20:49:58.768Z,7.83
2019-04-23T20:52:37.602Z,9.70
2019-04-23T20:55:06.741Z,10.27
2019-04-23T20:57:45.711Z,8.15
2019-04-23T21:05:24.768Z,9.20
2019-04-23T21:10:27.436Z,9.20
2019-04-23T21:13:09.217Z,15.17
2019-04-23T21:15:26.488Z,8.70
2019-04-23T21:18:10.909Z,8.73
2019-04-23T21:20:26.590Z,8.45
2019-04-23T21:22:58.967Z,9.23
2019-04-23T21:25:28.369Z,10.75
2019-04-23T21:30:48.548Z,8.35
2019-04-23T21:33:04.906Z,9.43
2019-04-23T21:36:10.841Z,7.47
2019-04-23T21:39:04.082Z,9.60
2019-04-23T21:46:20.428Z,10.93
2019-04-23T21:49:08.914Z,11.65
2019-04-23T21:51:38.480Z,12.17
2019-04-23T21:53:52.198Z,9.63
2019-04-23T21:56:23.990Z,9.40
2019-04-23T22:01:32.390Z,9.75
2019-04-23T22:04:08.726Z,7.80
2019-04-23T22:11:48.458Z,9.68
2019-04-23T22:14:05.518Z,9.77
2019-04-23T22:16:36.971Z,8.95
2019-04-23T22:24:03.156Z,10.65
2019-04-23T22:31:37.809Z,10.00
2019-04-23T22:34:17.620Z,11.60
2019-04-23T22:36:37.003Z,10.73
2019-04-23T22:39:03.152Z,11.70
2019-04-23T22:41:38.012Z,8.83
2019-04-23T22:46:48.363Z,14.50
2019-04-23T22:49:14.348Z,16.45
2019-04-23T22:51:41.514Z,21.17
2019-04-23T22:54:05.539Z,19.35
2019-04-23T22:56:39.867Z,18.33
2019-04-23T22:59:18.299Z,23.90
2019-04-23T23:04:13.656Z,20.43
2019-04-23T23:06:48.857Z,21.15
2019-04-23T23:09:23.136Z,17.73
2019-04-23T23:11:42.794Z,17.62
2019-04-23T23:19:15.025Z,26.52
2019-04-23T23:21:51.564Z,18.57
2019-04-23T23:24:06.147Z,14.73
2019-04-23T23:26:50.360Z,17.02
2019-04-23T23:29:05.776Z,12.82
2019-04-23T23:31:44.026Z,12.25
2019-04-23T23:34:10.102Z,11.03
2019-04-23T23:36:48.098Z,19.23
2019-04-23T23:39:21.177Z,12.78
2019-04-23T23:41:50.153Z,12.85
2019-04-23T23:46:46.721Z,11.60
2019-04-23T23:49:15.535Z,13.32
2019-04-23T23:51:45.078Z,10.60
2019-04-23T23:54:13.872Z,11.80
2019-04-23T23:56:56.472Z,11.30
